Time;durP1;ratioP1;P1;durP2;ratioP2;P2;SDS_P1;SDS_P2;PMS_P1;PMS_P2;Temp;Humidity;BMP_temperature;BMP_pressure;BME280_temperature;BME280_humidity;BME280_pressure;Samples;Min_cycle;Max_cycle;Signal;HPM_P1;HPM_P2
2022/03/15 00:00:14;;;;;;;62.60;38.50;;;;;;;2.77;52.83;101481.09;107661;1271;137710;-72
2022/03/15 00:03:06;;;;;;;62.60;38.40;;;;;;;2.71;53.01;101476.88;107724;1270;94653;-72
2022/03/15 00:05:39;;;;;;;73.50;39.30;;;;;;;2.67;53.06;101475.91;107836;1270;110113;-72
2022/03/15 00:08:12;;;;;;;68.00;40.10;;;;;;;2.62;52.93;101476.17;107656;1271;137505;-73
2022/03/15 00:10:45;;;;;;;67.50;39.10;;;;;;;2.59;53.16;101470.78;107759;1270;108834;-71
2022/03/15 00:13:17;;;;;;;72.60;40.60;;;;;;;2.54;53.22;101469.48;107710;1270;139099;-72
2022/03/15 00:15:52;;;;;;;68.50;40.10;;;;;;;2.50;53.47;101472.49;107819;1268;94600;-72
2022/03/15 00:18:26;;;;;;;69.10;40.40;;;;;;;2.46;53.56;101467.24;107705;1270;138193;-72
2022/03/15 00:20:58;;;;;;;67.90;41.10;;;;;;;2.41;53.60;101466.48;107827;1270;106701;-73
2022/03/15 00:23:31;;;;;;;71.50;40.80;;;;;;;2.37;53.64;101468.14;107751;1270;108960;-74
2022/03/15 00:26:04;;;;;;;67.40;40.30;;;;;;;2.35;53.98;101461.89;107714;1269;138579;-73
2022/03/15 00:28:36;;;;;;;73.00;41.80;;;;;;;2.33;53.94;101463.73;107892;1268;94957;-73
2022/03/15 00:31:08;;;;;;;69.70;40.70;;;;;;;2.31;53.72;101469.51;107815;1268;137580;-73
2022/03/15 00:33:43;;;;;;;73.20;40.50;;;;;;;2.28;53.84;101457.78;107917;1268;107079;-73
2022/03/15 00:36:16;;;;;;;68.10;41.20;;;;;;;2.26;53.86;101457.42;107706;1268;137797;-73
2022/03/15 00:38:48;;;;;;;73.80;42.60;;;;;;;2.25;53.97;101453.95;107866;1268;94545;-73
2022/03/15 00:41:21;;;;;;;70.10;42.40;;;;;;;2.23;54.14;101451.51;107891;1268;94753;-73
2022/03/15 00:43:54;;;;;;;71.40;41.40;;;;;;;2.21;54.34;101454.23;107745;1269;137588;-73
2022/03/15 00:46:27;;;;;;;76.10;41.90;;;;;;;2.19;54.25;101456.06;107912;1268;109121;-73
2022/03/15 00:48:59;;;;;;;70.40;42.70;;;;;;;2.16;54.63;101452.91;107752;1270;137599;-73
2022/03/15 00:51:34;;;;;;;77.30;42.40;;;;;;;2.12;54.50;101448.52;107879;1268;94709;-73
2022/03/15 00:54:07;;;;;;;76.00;43.00;;;;;;;2.08;54.71;101453.42;107779;1268;138738;-72
2022/03/15 00:56:39;;;;;;;72.90;42.50;;;;;;;2.05;54.81;101453.19;107857;1269;111085;-73
2022/03/15 00:59:12;;;;;;;71.50;42.30;;;;;;;2.00;54.90;101451.02;107930;1268;109081;-73
2022/03/15 01:01:44;;;;;;;72.40;43.40;;;;;;;1.96;55.27;101451.09;107788;1268;139388;-73
2022/03/15 01:04:16;;;;;;;74.70;42.90;;;;;;;1.92;55.08;101455.62;107855;1268;96162;-73
2022/03/15 01:06:49;;;;;;;68.30;41.50;;;;;;;1.89;55.27;101449.05;107779;1269;138217;-73
2022/03/15 01:09:21;;;;;;;74.40;44.20;;;;;;;1.86;55.44;101455.34;107916;1268;109536;-73
2022/03/15 01:11:54;;;;;;;76.60;43.80;;;;;;;1.84;55.20;101455.81;107854;1268;106660;-73
2022/03/15 01:14:27;;;;;;;76.60;45.60;;;;;;;1.80;55.62;101450.59;107726;1269;137810;-73
2022/03/15 01:16:59;;;;;;;77.30;44.90;;;;;;;1.77;55.78;101452.71;107845;1268;94891;-73
2022/03/15 01:19:32;;;;;;;73.20;43.70;;;;;;;1.74;56.12;101447.00;107774;1268;137779;-72
2022/03/15 01:22:05;;;;;;;72.60;43.50;;;;;;;1.70;55.99;101447.94;107860;1268;108634;-72
2022/03/15 01:24:37;;;;;;;70.80;43.00;;;;;;;1.67;56.13;101449.94;107779;1268;138693;-72
2022/03/15 01:27:10;;;;;;;71.60;43.20;;;;;;;1.64;56.13;101444.20;107685;1268;109072;-73
2022/03/15 01:29:44;;;;;;;72.60;43.60;;;;;;;1.61;56.31;101438.65;107929;1268;94895;-72
2022/03/15 01:32:16;;;;;;;76.10;44.20;;;;;;;1.58;56.43;101440.61;107737;1268;137530;-72
2022/03/15 01:34:51;;;;;;;74.60;43.30;;;;;;;1.54;56.31;101440.36;107919;1268;107966;-73
2022/03/15 01:37:23;;;;;;;77.80;44.70;;;;;;;1.51;56.70;101440.64;107705;1268;138677;-71
2022/03/15 01:39:56;;;;;;;76.90;45.00;;;;;;;1.47;56.46;101442.11;107900;1267;109560;-72
2022/03/15 01:42:28;;;;;;;76.50;43.70;;;;;;;1.43;56.61;101437.52;107811;1268;138487;-72
2022/03/15 01:45:05;;;;;;;74.40;44.30;;;;;;;1.39;56.50;101444.45;107806;1271;94793;-72
2022/03/15 01:47:37;;;;;;;79.10;45.80;;;;;;;1.35;56.58;101444.53;107770;1271;111279;-73
2022/03/15 01:50:10;;;;;;;73.60;44.40;;;;;;;1.32;56.71;101441.88;107756;1270;139069;-73
2022/03/15 01:52:45;;;;;;;77.70;46.40;;;;;;;1.28;56.94;101441.44;107774;1270;107815;-74
2022/03/15 01:55:17;;;;;;;75.40;44.70;;;;;;;1.22;57.14;101442.48;107717;1270;138408;-73
2022/03/15 01:57:50;;;;;;;72.40;42.70;;;;;;;1.19;57.08;101445.67;107863;1269;95153;-73
2022/03/15 02:00:22;;;;;;;74.70;41.90;;;;;;;1.17;56.85;101447.00;107658;1270;139593;-72
2022/03/15 02:02:57;;;;;;;67.90;42.20;;;;;;;1.16;56.88;101454.69;107810;1271;107783;-72
2022/03/15 02:05:30;;;;;;;73.20;41.80;;;;;;;1.17;57.12;101449.23;107835;1270;106266;-72
2022/03/15 02:08:13;;;;;;;73.10;43.00;;;;;;;1.20;57.09;101444.16;107739;1270;137615;-72
2022/03/15 02:10:45;;;;;;;75.00;43.60;;;;;;;1.23;57.04;101445.07;107873;1270;94923;-72
2022/03/15 02:13:18;;;;;;;79.30;44.80;;;;;;;1.23;56.90;101441.98;107709;1269;137596;-72
2022/03/15 02:15:52;;;;;;;77.00;44.80;;;;;;;1.23;57.01;101439.60;107771;1269;107493;-72
2022/03/15 02:18:26;;;;;;;78.40;46.10;;;;;;;1.21;56.93;101436.48;107659;1271;137949;-73
2022/03/15 02:20:59;;;;;;;79.70;45.90;;;;;;;1.19;56.87;101436.77;107811;1269;94748;-72
2022/03/15 02:23:31;;;;;;;80.90;44.40;;;;;;;1.16;56.91;101436.70;107757;1270;95080;-71
2022/03/15 02:26:03;;;;;;;78.60;46.50;;;;;;;1.12;56.90;101436.42;107722;1270;137696;-72
2022/03/15 02:28:38;;;;;;;80.00;46.20;;;;;;;1.08;56.99;101430.66;107704;1269;108132;-72
2022/03/15 02:31:11;;;;;;;77.20;45.60;;;;;;;1.06;56.92;101431.96;107679;1271;138231;-72
2022/03/15 03:05:39;;;;;;;78.50;44.50;;;;;;;0.84;56.99;101438.44;106530;1258;108280;-72
2022/03/15 03:08:12;;;;;;;73.60;42.60;;;;;;;0.85;56.96;101436.58;107544;1270;137763;-72
2022/03/15 03:10:44;;;;;;;70.50;41.80;;;;;;;0.87;56.95;101436.63;107700;1271;94881;-72
2022/03/15 03:13:17;;;;;;;78.80;43.80;;;;;;;0.88;56.87;101440.41;106458;1271;137213;-72
2022/03/15 03:15:49;;;;;;;68.90;41.30;;;;;;;0.88;56.84;101438.87;106030;1271;110750;-72
2022/03/15 03:18:21;;;;;;;78.20;42.90;;;;;;;0.91;56.80;101442.05;106076;1271;108308;-72
2022/03/15 03:20:54;;;;;;;74.50;41.80;;;;;;;0.93;56.80;101445.88;105905;1271;139079;-72
2022/03/15 03:23:26;;;;;;;72.10;40.80;;;;;;;0.96;56.74;101453.98;106047;1271;96523;-73
2022/03/15 03:25:59;;;;;;;74.30;41.50;;;;;;;0.95;56.61;101455.17;106642;1271;138397;-72
2022/03/15 03:28:33;;;;;;;67.20;38.60;;;;;;;0.95;56.56;101453.63;107769;1271;111499;-73
2022/03/15 03:31:07;;;;;;;71.20;38.80;;;;;;;0.98;56.34;101451.30;107487;1271;139820;-72
2022/03/15 03:33:40;;;;;;;75.80;42.20;;;;;;;1.04;56.28;101442.73;107737;1271;109627;-73
2022/03/15 03:36:13;;;;;;;73.10;43.20;;;;;;;1.09;56.08;101440.48;107712;1271;94925;-73
2022/03/15 03:38:45;;;;;;;76.30;42.00;;;;;;;1.13;55.97;101439.71;107606;1271;138142;-72
2022/03/15 03:41:17;;;;;;;74.10;40.60;;;;;;;1.16;55.78;101440.30;107642;1270;111174;-73
2022/03/15 03:43:49;;;;;;;68.80;41.10;;;;;;;1.18;55.71;101440.16;107561;1271;137806;-72
2022/03/15 03:46:21;;;;;;;70.40;40.80;;;;;;;1.19;55.55;101445.17;107675;1271;107549;-73
2022/03/15 03:48:54;;;;;;;71.80;41.20;;;;;;;1.19;55.75;101446.36;107693;1271;94987;-72
2022/03/15 03:51:26;;;;;;;72.00;42.00;;;;;;;1.17;55.62;101446.84;107573;1270;137342;-73
2022/03/15 03:53:58;;;;;;;71.10;39.90;;;;;;;1.16;55.61;101448.35;107710;1271;111333;-73
2022/03/15 03:56:31;;;;;;;70.30;40.70;;;;;;;1.16;55.53;101445.42;107607;1271;138235;-73
2022/03/15 03:59:03;;;;;;;73.10;40.00;;;;;;;1.17;55.40;101446.33;107735;1271;108783;-72
2022/03/15 04:01:35;;;;;;;69.00;39.50;;;;;;;1.21;55.22;101444.70;107576;1271;138755;-72
2022/03/15 04:04:08;;;;;;;67.30;39.60;;;;;;;1.24;55.21;101444.23;107731;1271;94886;-72
2022/03/15 04:06:40;;;;;;;66.80;41.20;;;;;;;1.27;55.04;101444.69;107713;1270;110946;-72
2022/03/15 04:09:12;;;;;;;67.40;40.30;;;;;;;1.29;54.99;101445.23;107625;1271;139674;-72
2022/03/15 04:11:45;;;;;;;61.20;38.20;;;;;;;1.29;55.06;101446.45;107667;1271;108877;-72
2022/03/15 04:14:17;;;;;;;66.40;38.00;;;;;;;1.28;55.03;101443.85;107592;1271;139821;-73
2022/03/15 04:16:49;;;;;;;64.20;38.80;;;;;;;1.28;54.84;101442.66;107721;1270;94770;-72
2022/03/15 04:19:21;;;;;;;66.10;39.00;;;;;;;1.29;54.90;101440.96;107656;1270;137670;-72
2022/03/15 04:21:54;;;;;;;66.50;39.10;;;;;;;1.30;54.77;101439.95;107684;1271;108821;-73
2022/03/15 04:24:27;;;;;;;59.80;35.60;;;;;;;1.29;54.81;101439.25;107737;1271;107772;-72
2022/03/15 04:26:59;;;;;;;68.70;38.80;;;;;;;1.32;54.53;101441.72;107602;1270;137791;-73
2022/03/15 04:29:32;;;;;;;64.90;38.20;;;;;;;1.32;54.49;101435.05;107703;1271;94878;-73
2022/03/15 04:32:04;;;;;;;67.00;38.90;;;;;;;1.33;54.48;101432.66;107592;1270;137535;-73
2022/03/15 04:34:38;;;;;;;68.30;37.80;;;;;;;1.34;54.43;101435.94;107742;1270;108145;-73
2022/03/15 04:37:10;;;;;;;66.90;38.00;;;;;;;1.34;54.37;101428.40;107542;1271;139116;-72
2022/03/15 04:39:42;;;;;;;69.00;38.20;;;;;;;1.34;54.16;101430.80;107736;1270;94863;-72
2022/03/15 04:42:14;;;;;;;68.10;39.20;;;;;;;1.35;54.08;101430.98;107707;1270;94872;-73
2022/03/15 04:44:46;;;;;;;66.50;38.70;;;;;;;1.35;54.10;101429.45;107645;1270;137992;-73
2022/03/15 04:47:19;;;;;;;69.40;38.90;;;;;;;1.37;53.94;101428.80;107705;1270;108650;-73
2022/03/15 04:49:51;;;;;;;65.20;38.70;;;;;;;1.39;54.04;101432.45;107605;1270;139085;-73
2022/03/15 04:52:24;;;;;;;60.20;37.00;;;;;;;1.40;54.05;101429.40;107687;1270;94888;-73
2022/03/15 04:54:56;;;;;;;67.10;37.90;;;;;;;1.41;54.00;101429.41;107728;1270;94825;-73
2022/03/15 04:57:29;;;;;;;68.40;36.60;;;;;;;1.44;53.88;101427.45;107632;1270;137997;-73
2022/03/15 05:00:02;;;;;;;69.00;37.20;;;;;;;1.48;53.86;101424.13;107730;1270;107761;-74
2022/03/15 05:02:35;;;;;;;65.60;38.50;;;;;;;1.54;53.51;101424.59;107620;1270;137753;-73
2022/03/15 05:05:10;;;;;;;57.90;35.10;;;;;;;1.62;53.49;101426.16;107650;1270;95227;-72
2022/03/15 05:07:42;;;;;;;64.00;35.90;;;;;;;1.69;53.50;101422.37;107651;1270;138203;-73
2022/03/15 05:13:04;;;;;;;61.50;35.30;;;;;;;1.84;53.11;101419.45;107182;1277;107901;-73
2022/03/15 05:15:36;;;;;;;57.40;35.20;;;;;;;1.96;53.00;101425.87;107082;1277;138364;-72
2022/03/15 05:18:08;;;;;;;55.60;34.10;;;;;;;2.06;52.70;101421.30;107193;1277;95456;-72
2022/03/15 05:20:40;;;;;;;59.50;33.00;;;;;;;2.16;52.32;101421.33;107083;1277;137574;-73
2022/03/15 05:23:14;;;;;;;56.10;32.90;;;;;;;2.32;52.17;101419.77;107140;1277;111067;-73
2022/03/15 05:25:46;;;;;;;53.80;31.80;;;;;;;2.53;51.94;101420.02;107190;1276;138809;-72
2022/03/15 05:28:18;;;;;;;56.00;33.00;;;;;;;2.81;51.69;101415.40;107264;1276;108856;-72
2022/03/15 05:30:50;;;;;;;55.70;34.40;;;;;;;3.13;51.21;101411.31;107227;1277;94850;-72
2022/03/15 05:33:23;;;;;;;64.20;34.90;;;;;;;3.44;50.89;101414.73;107183;1277;137792;-72
2022/03/15 05:35:55;;;;;;;60.40;35.90;;;;;;;3.94;50.45;101412.02;107319;1276;110521;-73
2022/03/15 05:38:27;;;;;;;59.90;36.60;;;;;;;4.52;49.70;101416.36;107171;1277;138110;-73
2022/03/15 05:41:00;;;;;;;55.70;35.50;;;;;;;5.07;48.82;101415.20;107221;1276;108007;-73
2022/03/15 05:43:52;;;;;;;63.80;35.10;;;;;;;5.61;47.70;101421.66;107147;1277;138877;-73
2022/03/15 05:46:24;;;;;;;60.10;34.90;;;;;;;6.00;46.71;101426.41;107314;1276;95083;-72
2022/03/15 05:48:59;;;;;;;58.20;34.50;;;;;;;6.45;45.42;101428.52;107272;1277;110848;-73
2022/03/15 05:51:31;;;;;;;57.50;34.60;;;;;;;6.86;44.46;101420.67;107510;1269;232769;-72
2022/03/15 05:54:04;;;;;;;58.00;34.20;;;;;;;7.43;43.82;101413.45;107719;1270;107775;-73
2022/03/15 05:56:39;;;;;;;55.10;35.30;;;;;;;8.09;43.34;101406.21;107646;1270;139263;-73
2022/03/15 05:59:11;;;;;;;52.90;34.40;;;;;;;8.92;42.17;101408.42;107752;1268;95043;-73
2022/03/15 06:01:43;;;;;;;50.30;33.70;;;;;;;9.65;41.45;101402.60;107227;1270;137904;-72
2022/03/15 06:04:17;;;;;;;55.40;34.10;;;;;;;10.32;40.06;101405.01;107793;1270;108181;-72
2022/03/15 06:06:49;;;;;;;58.80;34.70;;;;;;;10.88;39.34;101404.59;107712;1270;108789;-71
2022/03/15 06:09:22;;;;;;;51.50;34.10;;;;;;;11.41;38.48;101403.55;107654;1270;137895;-73
2022/03/15 06:11:55;;;;;;;53.10;35.20;;;;;;;11.87;37.86;101406.92;107750;1268;95064;-74
2022/03/15 06:14:27;;;;;;;55.40;33.20;;;;;;;12.38;37.21;101407.13;107636;1270;138416;-73
2022/03/15 06:16:59;;;;;;;57.40;35.40;;;;;;;12.91;36.60;101406.13;107760;1270;109031;-72
2022/03/15 06:19:32;;;;;;;55.90;36.10;;;;;;;13.45;35.66;101407.98;107652;1270;139203;-73
2022/03/15 06:22:06;;;;;;;54.90;36.20;;;;;;;13.91;35.20;101409.20;107705;1271;94784;-73
2022/03/15 06:24:38;;;;;;;55.40;33.90;;;;;;;14.55;34.70;101410.34;107746;1270;94570;-73
2022/03/15 06:27:12;;;;;;;52.80;34.00;;;;;;;15.17;33.48;101410.70;107649;1270;137763;-73
2022/03/15 06:29:46;;;;;;;55.40;35.60;;;;;;;15.62;33.17;101412.54;107793;1269;107752;-73
2022/03/15 06:32:19;;;;;;;50.20;33.10;;;;;;;16.36;32.36;101417.25;107639;1270;138616;-73
2022/03/15 06:34:54;;;;;;;51.20;34.50;;;;;;;17.07;31.90;101415.70;107692;1270;94483;-73
2022/03/15 06:37:26;;;;;;;52.60;35.10;;;;;;;17.75;31.13;101407.58;107662;1270;138756;-74
2022/03/15 06:39:59;;;;;;;43.40;32.60;;;;;;;18.77;30.84;101405.58;107766;1270;110237;-73
2022/03/15 06:42:31;;;;;;;52.30;32.20;;;;;;;19.11;29.93;101404.11;107662;1272;108528;-73
2022/03/15 06:45:04;;;;;;;50.50;33.20;;;;;;;18.31;29.71;101406.65;107654;1270;138520;-73
2022/03/15 06:47:36;;;;;;;45.80;30.50;;;;;;;17.55;30.14;101399.12;107755;1270;94628;-73
2022/03/15 06:50:12;;;;;;;50.30;31.90;;;;;;;17.00;29.90;101400.36;107650;1270;138570;-73
2022/03/15 06:52:48;;;;;;;45.00;31.70;;;;;;;17.07;30.47;101401.15;107775;1269;109806;-73
2022/03/15 06:55:20;;;;;;;37.80;27.40;;;;;;;18.21;30.06;101402.20;107627;1269;138242;-73
2022/03/15 06:57:53;;;;;;;40.90;27.10;;;;;;;19.09;29.20;101403.33;107757;1270;108172;-73
2022/03/15 07:00:29;;;;;;;43.90;29.50;;;;;;;20.15;28.93;101405.48;107750;1270;94867;-74
2022/03/15 07:03:01;;;;;;;39.30;27.90;;;;;;;21.13;28.11;101403.73;107643;1270;138030;-74
2022/03/15 07:05:34;;;;;;;39.00;27.20;;;;;;;21.92;27.27;101404.22;107770;1270;110141;-73
2022/03/15 07:08:07;;;;;;;36.70;25.10;;;;;;;22.62;26.51;101406.20;107548;1273;139767;-73
2022/03/15 07:10:39;;;;;;;36.00;24.70;;;;;;;23.30;26.24;101400.70;107712;1270;107680;-73
2022/03/15 07:13:12;;;;;;;32.10;23.90;;;;;;;23.91;25.64;101398.80;107665;1270;138580;-73
2022/03/15 07:15:44;;;;;;;32.60;24.60;;;;;;;24.44;24.91;101400.40;107776;1270;94534;-74
2022/03/15 07:18:18;;;;;;;30.60;23.30;;;;;;;24.67;24.33;101402.63;107742;1270;110208;-73
2022/03/15 07:20:51;;;;;;;34.00;24.00;;;;;;;24.82;24.00;101401.89;107602;1270;138782;-74
2022/03/15 07:23:23;;;;;;;30.40;23.60;;;;;;;24.97;23.57;101397.63;107751;1270;107808;-74
2022/03/15 07:25:56;;;;;;;30.90;22.70;;;;;;;25.17;23.26;101400.73;107607;1270;138584;-84
2022/03/15 07:28:28;;;;;;;30.40;22.60;;;;;;;25.57;23.45;101402.14;107724;1270;94723;-72
2022/03/15 07:31:00;;;;;;;27.50;21.70;;;;;;;26.00;22.77;101405.11;107697;1270;111093;-73
2022/03/15 07:33:33;;;;;;;28.70;21.50;;;;;;;25.96;22.11;101404.88;107631;1270;138334;-73
2022/03/15 07:36:06;;;;;;;31.90;22.10;;;;;;;25.85;22.06;101403.34;107697;1270;107822;-74
2022/03/15 07:38:38;;;;;;;24.00;20.50;;;;;;;26.06;22.35;101402.23;107648;1270;139845;-73
2022/03/15 07:41:11;;;;;;;30.00;21.90;;;;;;;26.24;21.86;101406.40;107774;1270;94791;-73
2022/03/15 07:43:43;;;;;;;30.20;20.90;;;;;;;26.25;21.98;101414.48;107657;1270;138024;-71
2022/03/15 07:46:15;;;;;;;29.30;20.30;;;;;;;26.33;21.93;101413.48;107765;1270;107695;-71
2022/03/15 07:48:48;;;;;;;30.70;20.80;;;;;;;26.47;21.35;101406.48;107735;1270;108894;-72
2022/03/15 07:51:20;;;;;;;27.10;20.50;;;;;;;26.74;21.34;101409.84;107614;1270;138688;-73
2022/03/15 07:53:58;;;;;;;27.20;21.70;;;;;;;26.87;21.28;101417.65;107773;1270;94818;-72
2022/03/15 07:56:30;;;;;;;33.00;21.00;;;;;;;27.14;21.17;101426.55;107627;1270;137815;-73
2022/03/15 07:59:03;;;;;;;24.60;20.30;;;;;;;27.22;21.02;101422.80;107690;1270;107887;-73
2022/03/15 08:01:36;;;;;;;27.20;21.10;;;;;;;27.38;20.91;101417.70;107504;1270;138932;-73
2022/03/15 08:04:08;;;;;;;25.40;19.50;;;;;;;27.52;20.65;101418.27;107688;1270;94699;-72
2022/03/15 08:06:40;;;;;;;22.90;18.60;;;;;;;27.42;20.27;101422.72;107719;1269;95586;-73
2022/03/15 08:09:14;;;;;;;28.60;18.90;;;;;;;27.01;20.43;101422.09;107539;1270;139105;-75
2022/03/15 08:11:47;;;;;;;25.20;18.90;;;;;;;26.63;20.41;101424.27;107636;1271;107456;-77
2022/03/15 08:14:19;;;;;;;20.90;17.80;;;;;;;26.69;20.74;101422.41;107575;1270;138606;-81
2022/03/15 08:16:52;;;;;;;26.00;19.30;;;;;;;26.75;20.75;101426.36;107652;1270;96210;-75
2022/03/15 08:19:24;;;;;;;26.90;19.20;;;;;;;26.81;20.74;101423.67;107642;1269;139012;-75
2022/03/15 08:22:01;;;;;;;23.80;19.00;;;;;;;26.86;20.73;101428.30;107746;1270;112363;-75
2022/03/15 08:24:34;;;;;;;24.10;18.60;;;;;;;26.43;20.83;101425.17;107748;1270;108968;-76
2022/03/15 08:27:07;;;;;;;26.40;19.90;;;;;;;25.92;20.87;101428.99;107599;1270;138429;-76
2022/03/15 08:29:39;;;;;;;25.60;19.00;;;;;;;24.89;21.50;101432.52;107621;1270;97176;-74
2022/03/15 08:32:12;;;;;;;25.00;18.60;;;;;;;23.87;22.17;101427.70;107517;1270;137901;-75
2022/03/15 08:34:45;;;;;;;26.10;20.00;;;;;;;22.92;22.95;101430.84;107683;1270;111226;-75
2022/03/15 08:37:17;;;;;;;25.80;20.30;;;;;;;22.01;23.57;101427.72;107608;1270;138963;-75
2022/03/15 08:39:50;;;;;;;26.70;20.80;;;;;;;21.06;24.26;101429.25;107720;1270;107476;-75
2022/03/15 08:42:28;;;;;;;26.40;20.30;;;;;;;20.09;25.09;101429.30;107706;1270;96248;-74
2022/03/15 08:45:00;;;;;;;27.40;20.60;;;;;;;19.16;25.90;101426.82;107640;1270;139421;-74
2022/03/15 08:47:33;;;;;;;27.50;20.20;;;;;;;18.69;26.82;101425.88;107724;1270;111474;-74
2022/03/15 08:50:08;;;;;;;26.40;19.60;;;;;;;18.62;27.43;101423.74;107465;1270;139654;-73
2022/03/15 08:52:41;;;;;;;27.10;20.60;;;;;;;18.81;27.56;101424.65;107698;1270;108816;-75
2022/03/15 08:55:14;;;;;;;24.20;19.40;;;;;;;19.00;27.65;101421.58;107604;1270;138322;-73
2022/03/15 08:57:47;;;;;;;23.60;19.10;;;;;;;19.05;28.03;101413.11;107756;1270;96213;-76
2022/03/15 09:00:19;;;;;;;24.30;18.80;;;;;;;19.08;28.01;101409.77;107728;1270;111553;-75
2022/03/15 09:02:52;;;;;;;23.30;18.60;;;;;;;19.35;28.32;101405.38;107625;1270;139333;-76
2022/03/15 09:05:26;;;;;;;25.00;18.80;;;;;;;20.04;28.00;101405.92;107677;1264;107635;-76
2022/03/15 09:07:59;;;;;;;22.20;18.00;;;;;;;20.54;27.92;101404.27;107567;1270;138498;-76
2022/03/15 09:10:31;;;;;;;24.20;18.90;;;;;;;20.92;27.44;101394.55;107834;1269;95977;-76
2022/03/15 09:13:07;;;;;;;23.60;17.50;;;;;;;21.30;27.46;101399.05;107750;1270;112518;-76
2022/03/15 09:15:40;;;;;;;23.90;18.80;;;;;;;21.66;27.12;101396.61;107713;1270;137968;-76
2022/03/15 09:18:12;;;;;;;23.80;18.70;;;;;;;21.82;26.85;101391.39;107786;1270;107742;-76
2022/03/15 09:20:45;;;;;;;21.30;18.30;;;;;;;22.10;26.61;101394.77;107623;1269;138994;-76
2022/03/15 09:23:18;;;;;;;20.40;18.00;;;;;;;21.90;26.72;101397.38;107825;1270;96095;-76
2022/03/15 09:25:50;;;;;;;23.80;18.70;;;;;;;21.76;26.74;101395.62;107673;1268;138214;-75
2022/03/15 09:28:29;;;;;;;24.50;17.90;;;;;;;21.78;27.01;101396.02;107705;1270;110502;-75
2022/03/15 09:31:02;;;;;;;22.30;18.10;;;;;;;21.66;26.86;101395.88;107575;1270;107898;-76
2022/03/15 09:33:38;;;;;;;22.20;17.80;;;;;;;21.39;26.94;101396.24;107580;1269;138331;-76
2022/03/15 09:36:12;;;;;;;23.60;18.60;;;;;;;21.05;27.23;101395.72;107767;1269;96275;-76
2022/03/15 09:38:46;;;;;;;24.10;18.40;;;;;;;20.42;27.40;101402.63;107513;1269;138155;-75
2022/03/15 09:41:19;;;;;;;25.10;18.30;;;;;;;19.94;27.92;101410.65;107734;1270;107231;-76
2022/03/15 09:43:54;;;;;;;24.80;19.20;;;;;;;19.58;28.52;101412.76;107567;1268;139147;-75
2022/03/15 09:46:29;;;;;;;25.70;19.00;;;;;;;19.00;28.64;101419.14;107729;1269;96333;-75
2022/03/15 09:49:24;;;;;;;22.20;18.60;;;;;;;18.08;29.62;101419.33;107597;1269;139337;-75
2022/03/15 09:51:59;;;;;;;25.40;19.30;;;;;;;17.18;30.43;101421.25;107785;1270;111387;-75
2022/03/15 09:54:32;;;;;;;23.60;19.30;;;;;;;16.64;31.41;101424.42;107781;1269;106466;-74
2022/03/15 09:57:06;;;;;;;23.40;19.30;;;;;;;16.30;32.23;101428.89;107586;1268;139891;-77
2022/03/15 09:59:39;;;;;;;24.10;19.30;;;;;;;15.82;32.66;101431.48;107745;1270;97349;-76
2022/03/15 10:02:13;;;;;;;26.50;20.60;;;;;;;15.34;33.58;101433.45;107435;1271;139223;-76
2022/03/15 10:04:46;;;;;;;24.30;19.40;;;;;;;15.01;34.39;101433.45;107719;1269;113987;-74
2022/03/15 10:07:18;;;;;;;26.00;20.40;;;;;;;14.69;35.04;101436.55;107561;1270;138856;-74
2022/03/15 10:09:52;;;;;;;25.50;20.20;;;;;;;14.38;35.78;101435.52;107664;1270;107869;-77
2022/03/15 10:12:25;;;;;;;24.00;19.60;;;;;;;14.12;36.45;101434.69;107564;1270;96109;-77
2022/03/15 10:15:10;;;;;;;21.30;18.60;;;;;;;13.82;37.22;101439.70;107505;1270;139629;-76
2022/03/15 10:17:52;;;;;;;24.20;19.10;;;;;;;13.50;37.87;101436.15;107638;1270;111510;-76
2022/03/15 10:20:28;;;;;;;26.70;19.60;;;;;;;13.22;38.67;101433.52;107541;1270;138850;-77
2022/03/15 10:23:03;;;;;;;28.00;19.60;;;;;;;13.02;39.23;101438.86;107639;1270;109215;-77
2022/03/15 10:25:36;;;;;;;;;;;;;;;12.88;39.62;101439.02;107495;1271;139183;-76
2022/03/15 10:28:10;;;;;;;24.50;19.80;;;;;;;12.83;40.05;101436.88;107675;1270;96242;-76
2022/03/15 10:30:49;;;;;;;24.80;19.10;;;;;;;12.82;40.35;101435.49;107659;1270;112127;-76
2022/03/15 10:33:21;;;;;;;27.20;19.50;;;;;;;12.89;40.58;101432.34;107482;1271;138856;-76
2022/03/15 10:35:55;;;;;;;21.00;17.80;;;;;;;12.93;40.63;101435.77;107617;1270;108413;-77
2022/03/15 10:38:28;;;;;;;26.20;20.00;;;;;;;12.86;40.69;101428.77;107585;1270;139142;-76
2022/03/15 10:41:04;;;;;;;28.80;20.40;;;;;;;12.79;40.93;101421.96;107642;1270;96305;-76
2022/03/15 10:43:37;;;;;;;24.90;20.50;;;;;;;12.98;41.15;101418.19;107594;1270;138324;-77
2022/03/15 10:46:12;;;;;;;26.90;19.60;;;;;;;13.31;40.81;101403.08;107717;1270;107917;-77
2022/03/15 10:48:45;;;;;;;25.60;20.30;;;;;;;13.45;40.54;101402.92;107663;1270;108964;-76
2022/03/15 10:51:19;;;;;;;24.00;19.30;;;;;;;13.54;40.51;101400.77;107470;1270;138269;-76
2022/03/15 10:54:00;;;;;;;27.90;20.00;;;;;;;13.55;40.40;101401.25;107667;1270;95808;-76
2022/03/15 10:56:34;;;;;;;24.30;20.00;;;;;;;13.47;40.39;101398.49;107602;1270;139307;-76
2022/03/15 10:59:11;;;;;;;27.90;21.10;;;;;;;13.52;40.59;101392.44;107570;1271;106917;-75
2022/03/15 11:01:45;;;;;;;28.70;22.10;;;;;;;13.52;40.53;101393.14;107556;1270;139007;-76
2022/03/15 11:04:18;;;;;;;26.30;21.70;;;;;;;13.64;40.66;101389.29;107447;1273;95949;-76
2022/03/15 11:06:52;;;;;;;23.40;20.50;;;;;;;13.87;40.53;101384.83;107682;1270;96668;-76
2022/03/15 11:09:34;;;;;;;26.20;19.10;;;;;;;14.26;40.52;101377.95;107412;1272;138561;-76
2022/03/15 11:12:08;;;;;;;22.90;19.20;;;;;;;14.81;40.21;101373.84;107582;1273;106788;-76
2022/03/15 11:14:47;;;;;;;22.60;18.90;;;;;;;15.34;39.61;101368.77;107557;1268;142151;-75
2022/03/15 11:17:26;;;;;;;25.70;19.10;;;;;;;15.76;39.28;101369.44;107502;1270;96411;-76
2022/03/15 11:20:01;;;;;;;21.90;18.80;;;;;;;16.24;38.50;101366.06;107598;1270;139776;-76
2022/03/15 11:22:35;;;;;;;19.50;17.40;;;;;;;16.58;37.70;101366.69;107691;1270;111619;-75
2022/03/15 11:25:12;;;;;;;22.00;17.90;;;;;;;16.73;37.31;101360.20;107625;1270;107855;-76
2022/03/15 11:27:46;;;;;;;22.50;18.80;;;;;;;16.86;37.26;101352.95;107504;1270;139109;-78
2022/03/15 11:30:21;;;;;;;24.50;19.10;;;;;;;17.03;36.89;101350.34;107626;1270;96170;-78
2022/03/15 11:32:55;;;;;;;21.50;18.50;;;;;;;16.99;36.37;101344.36;107429;1270;151790;-76
2022/03/15 11:35:29;;;;;;;21.70;18.70;;;;;;;16.80;36.56;101337.25;107655;1270;111988;-76
2022/03/15 11:38:04;;;;;;;24.40;18.70;;;;;;;16.96;36.74;101337.46;107632;1270;138758;-76
2022/03/15 11:40:37;;;;;;;23.30;18.70;;;;;;;17.12;36.34;101331.90;107697;1270;107355;-76
2022/03/15 11:43:22;;;;;;;21.40;17.20;;;;;;;17.04;36.01;101328.55;107689;1270;95980;-77
2022/03/15 11:46:03;;;;;;;20.40;18.00;;;;;;;16.85;36.03;101326.67;107612;1270;138068;-76
2022/03/15 11:48:47;;;;;;;22.40;18.10;;;;;;;16.70;36.08;101321.32;107740;1270;112975;-77
2022/03/15 11:51:26;;;;;;;19.70;17.60;;;;;;;16.61;36.27;101322.19;107462;1270;139981;-78
2022/03/15 11:54:08;;;;;;;21.80;18.00;;;;;;;16.50;36.39;101321.73;107679;1270;109579;-75
2022/03/15 11:56:46;;;;;;;20.80;18.20;;;;;;;16.45;36.43;101326.85;107608;1270;138726;-73
2022/03/15 11:59:19;;;;;;;22.20;18.40;;;;;;;16.39;36.64;101324.14;107744;1270;96062;-75
2022/03/15 12:01:55;;;;;;;21.50;18.10;;;;;;;16.56;36.70;101315.17;107660;1270;139563;-75